sensor_id;sensor_type;location;lat;lon;timestamp;P1;durP1;ratioP1;P2;durP2;ratioP2
23732;SDS011;12047;53.450;-2.286;2023-04-06T00:04:02;21.70;;;17.15;;
23732;SDS011;12047;53.450;-2.286;2023-04-06T00:09:10;22.33;;;18.50;;
23732;SDS011;12047;53.450;-2.286;2023-04-06T00:14:17;29.50;;;20.15;;
23732;SDS011;12047;53.450;-2.286;2023-04-06T00:25:05;22.35;;;17.90;;
23732;SDS011;12047;53.450;-2.286;2023-04-06T00:36:02;25.87;;;19.20;;
23732;SDS011;12047;53.450;-2.286;2023-04-06T00:52:44;26.17;;;20.27;;
23732;SDS011;12047;53.450;-2.286;2023-04-06T01:16:05;23.98;;;18.77;;
23732;SDS011;12047;53.450;-2.286;2023-04-06T01:21:06;23.70;;;18.98;;
23732;SDS011;12047;53.450;-2.286;2023-04-06T01:26:08;29.20;;;21.08;;
23732;SDS011;12047;53.450;-2.286;2023-04-06T01:31:09;26.02;;;20.80;;
23732;SDS011;12047;53.450;-2.286;2023-04-06T01:36:15;25.52;;;19.13;;
23732;SDS011;12047;53.450;-2.286;2023-04-06T01:41:16;27.23;;;21.50;;
23732;SDS011;12047;53.450;-2.286;2023-04-06T01:46:16;25.88;;;21.13;;
23732;SDS011;12047;53.450;-2.286;2023-04-06T01:51:17;28.65;;;22.08;;
23732;SDS011;12047;53.450;-2.286;2023-04-06T01:56:17;24.02;;;19.90;;
23732;SDS011;12047;53.450;-2.286;2023-04-06T02:01:18;23.30;;;19.55;;
23732;SDS011;12047;53.450;-2.286;2023-04-06T02:06:18;26.73;;;21.00;;
23732;SDS011;12047;53.450;-2.286;2023-04-06T02:11:19;25.08;;;21.98;;
23732;SDS011;12047;53.450;-2.286;2023-04-06T02:16:20;26.38;;;21.52;;
23732;SDS011;12047;53.450;-2.286;2023-04-06T02:21:20;27.42;;;22.38;;
23732;SDS011;12047;53.450;-2.286;2023-04-06T02:26:21;31.08;;;24.25;;
23732;SDS011;12047;53.450;-2.286;2023-04-06T02:31:22;29.52;;;24.30;;
23732;SDS011;12047;53.450;-2.286;2023-04-06T02:36:22;26.92;;;22.58;;
23732;SDS011;12047;53.450;-2.286;2023-04-06T02:41:23;27.10;;;22.63;;
23732;SDS011;12047;53.450;-2.286;2023-04-06T02:46:23;24.75;;;21.33;;
23732;SDS011;12047;53.450;-2.286;2023-04-06T02:51:24;28.40;;;22.48;;
23732;SDS011;12047;53.450;-2.286;2023-04-06T02:56:25;32.38;;;23.02;;
23732;SDS011;12047;53.450;-2.286;2023-04-06T03:01:26;31.05;;;23.67;;
23732;SDS011;12047;53.450;-2.286;2023-04-06T03:06:26;31.75;;;22.17;;
23732;SDS011;12047;53.450;-2.286;2023-04-06T03:11:27;27.13;;;21.80;;
23732;SDS011;12047;53.450;-2.286;2023-04-06T03:16:27;25.55;;;20.65;;
23732;SDS011;12047;53.450;-2.286;2023-04-06T03:21:28;26.92;;;20.88;;
23732;SDS011;12047;53.450;-2.286;2023-04-06T03:26:28;29.60;;;21.35;;
23732;SDS011;12047;53.450;-2.286;2023-04-06T03:31:29;30.92;;;22.80;;
23732;SDS011;12047;53.450;-2.286;2023-04-06T03:36:30;26.27;;;20.35;;
23732;SDS011;12047;53.450;-2.286;2023-04-06T03:41:30;24.13;;;19.00;;
23732;SDS011;12047;53.450;-2.286;2023-04-06T03:46:31;26.48;;;18.17;;
23732;SDS011;12047;53.450;-2.286;2023-04-06T03:51:32;28.33;;;18.73;;
23732;SDS011;12047;53.450;-2.286;2023-04-06T03:56:32;30.52;;;19.75;;
23732;SDS011;12047;53.450;-2.286;2023-04-06T04:01:33;53.60;;;19.70;;
23732;SDS011;12047;53.450;-2.286;2023-04-06T04:06:33;29.63;;;18.33;;
23732;SDS011;12047;53.450;-2.286;2023-04-06T04:11:36;27.45;;;18.55;;
23732;SDS011;12047;53.450;-2.286;2023-04-06T04:16:36;37.53;;;19.55;;
23732;SDS011;12047;53.450;-2.286;2023-04-06T04:21:44;32.88;;;18.80;;
23732;SDS011;12047;53.450;-2.286;2023-04-06T04:26:45;33.20;;;19.33;;
23732;SDS011;12047;53.450;-2.286;2023-04-06T04:31:46;40.28;;;20.15;;
23732;SDS011;12047;53.450;-2.286;2023-04-06T04:36:46;32.80;;;20.63;;
23732;SDS011;12047;53.450;-2.286;2023-04-06T04:41:48;37.47;;;22.17;;
23732;SDS011;12047;53.450;-2.286;2023-04-06T04:47:00;42.28;;;21.85;;
23732;SDS011;12047;53.450;-2.286;2023-04-06T04:52:06;40.25;;;23.63;;
23732;SDS011;12047;53.450;-2.286;2023-04-06T04:57:07;42.72;;;22.50;;
23732;SDS011;12047;53.450;-2.286;2023-04-06T05:02:08;39.33;;;21.90;;
23732;SDS011;12047;53.450;-2.286;2023-04-06T05:07:08;47.28;;;20.60;;
23732;SDS011;12047;53.450;-2.286;2023-04-06T05:12:09;38.03;;;21.48;;
23732;SDS011;12047;53.450;-2.286;2023-04-06T05:17:10;42.05;;;21.98;;
23732;SDS011;12047;53.450;-2.286;2023-04-06T05:22:11;36.55;;;21.50;;
23732;SDS011;12047;53.450;-2.286;2023-04-06T05:27:17;40.55;;;19.88;;
23732;SDS011;12047;53.450;-2.286;2023-04-06T05:32:21;31.33;;;17.73;;
23732;SDS011;12047;53.450;-2.286;2023-04-06T05:37:24;30.50;;;15.82;;
23732;SDS011;12047;53.450;-2.286;2023-04-06T05:42:28;28.25;;;15.57;;
23732;SDS011;12047;53.450;-2.286;2023-04-06T05:47:39;22.77;;;16.23;;
23732;SDS011;12047;53.450;-2.286;2023-04-06T05:52:41;27.35;;;15.43;;
23732;SDS011;12047;53.450;-2.286;2023-04-06T05:57:44;27.92;;;16.02;;
23732;SDS011;12047;53.450;-2.286;2023-04-06T06:02:46;17.30;;;10.45;;
23732;SDS011;12047;53.450;-2.286;2023-04-06T06:07:47;13.35;;;7.50;;
23732;SDS011;12047;53.450;-2.286;2023-04-06T06:12:48;16.00;;;4.15;;
23732;SDS011;12047;53.450;-2.286;2023-04-06T06:17:48;9.90;;;2.88;;
23732;SDS011;12047;53.450;-2.286;2023-04-06T06:22:49;7.78;;;2.53;;
23732;SDS011;12047;53.450;-2.286;2023-04-06T06:27:49;10.57;;;3.35;;
23732;SDS011;12047;53.450;-2.286;2023-04-06T06:32:51;14.32;;;4.28;;
23732;SDS011;12047;53.450;-2.286;2023-04-06T06:37:53;11.10;;;3.15;;
23732;SDS011;12047;53.450;-2.286;2023-04-06T06:48:55;19.45;;;4.18;;
23732;SDS011;12047;53.450;-2.286;2023-04-06T06:54:00;17.02;;;4.22;;
23732;SDS011;12047;53.450;-2.286;2023-04-06T06:59:01;17.10;;;4.50;;
23732;SDS011;12047;53.450;-2.286;2023-04-06T07:04:02;18.13;;;4.43;;
23732;SDS011;12047;53.450;-2.286;2023-04-06T07:09:02;13.15;;;3.08;;
23732;SDS011;12047;53.450;-2.286;2023-04-06T07:14:03;13.07;;;3.55;;
23732;SDS011;12047;53.450;-2.286;2023-04-06T07:19:03;15.07;;;3.38;;
23732;SDS011;12047;53.450;-2.286;2023-04-06T07:24:04;14.23;;;3.10;;
23732;SDS011;12047;53.450;-2.286;2023-04-06T07:29:04;16.70;;;3.95;;
23732;SDS011;12047;53.450;-2.286;2023-04-06T07:34:07;20.83;;;3.40;;
23732;SDS011;12047;53.450;-2.286;2023-04-06T07:39:08;18.98;;;3.70;;
23732;SDS011;12047;53.450;-2.286;2023-04-06T07:44:09;16.15;;;2.80;;
23732;SDS011;12047;53.450;-2.286;2023-04-06T07:49:09;17.98;;;3.13;;
23732;SDS011;12047;53.450;-2.286;2023-04-06T07:54:10;21.65;;;3.38;;
23732;SDS011;12047;53.450;-2.286;2023-04-06T07:59:10;18.65;;;3.30;;
23732;SDS011;12047;53.450;-2.286;2023-04-06T08:04:11;23.80;;;3.80;;
23732;SDS011;12047;53.450;-2.286;2023-04-06T08:09:11;22.10;;;3.30;;
23732;SDS011;12047;53.450;-2.286;2023-04-06T08:14:12;16.67;;;2.92;;
23732;SDS011;12047;53.450;-2.286;2023-04-06T08:19:12;14.63;;;2.83;;
23732;SDS011;12047;53.450;-2.286;2023-04-06T08:24:13;16.45;;;3.15;;
23732;SDS011;12047;53.450;-2.286;2023-04-06T08:29:15;16.75;;;3.38;;
23732;SDS011;12047;53.450;-2.286;2023-04-06T08:34:16;24.35;;;3.80;;
23732;SDS011;12047;53.450;-2.286;2023-04-06T08:39:16;19.80;;;3.00;;
23732;SDS011;12047;53.450;-2.286;2023-04-06T08:44:23;19.10;;;2.90;;
23732;SDS011;12047;53.450;-2.286;2023-04-06T08:49:27;18.25;;;2.92;;
23732;SDS011;12047;53.450;-2.286;2023-04-06T08:54:28;15.32;;;2.60;;
23732;SDS011;12047;53.450;-2.286;2023-04-06T08:59:29;12.70;;;2.80;;
23732;SDS011;12047;53.450;-2.286;2023-04-06T09:04:31;20.63;;;3.00;;
23732;SDS011;12047;53.450;-2.286;2023-04-06T09:09:33;16.52;;;2.60;;
23732;SDS011;12047;53.450;-2.286;2023-04-06T09:14:35;15.65;;;2.33;;
23732;SDS011;12047;53.450;-2.286;2023-04-06T09:19:46;12.45;;;2.53;;
23732;SDS011;12047;53.450;-2.286;2023-04-06T09:24:48;14.98;;;2.67;;
23732;SDS011;12047;53.450;-2.286;2023-04-06T09:29:50;15.73;;;2.38;;
23732;SDS011;12047;53.450;-2.286;2023-04-06T09:34:50;10.68;;;2.28;;
23732;SDS011;12047;53.450;-2.286;2023-04-06T09:40:01;18.42;;;3.50;;
23732;SDS011;12047;53.450;-2.286;2023-04-06T09:45:04;12.27;;;2.30;;
23732;SDS011;12047;53.450;-2.286;2023-04-06T09:50:05;10.73;;;2.30;;
23732;SDS011;12047;53.450;-2.286;2023-04-06T09:55:08;13.18;;;2.20;;
23732;SDS011;12047;53.450;-2.286;2023-04-06T10:00:10;17.90;;;3.15;;
23732;SDS011;12047;53.450;-2.286;2023-04-06T10:10:24;10.00;;;1.80;;
23732;SDS011;12047;53.450;-2.286;2023-04-06T10:15:24;10.02;;;2.20;;
23732;SDS011;12047;53.450;-2.286;2023-04-06T10:21:25;10.88;;;1.90;;
23732;SDS011;12047;53.450;-2.286;2023-04-06T10:26:02;11.03;;;2.17;;
23732;SDS011;12047;53.450;-2.286;2023-04-06T10:31:06;13.48;;;2.00;;
23732;SDS011;12047;53.450;-2.286;2023-04-06T10:41:12;10.63;;;1.67;;
23732;SDS011;12047;53.450;-2.286;2023-04-06T10:46:13;16.60;;;1.98;;
23732;SDS011;12047;53.450;-2.286;2023-04-06T10:51:28;15.30;;;2.55;;
23732;SDS011;12047;53.450;-2.286;2023-04-06T10:56:31;9.05;;;2.05;;
23732;SDS011;12047;53.450;-2.286;2023-04-06T11:01:34;9.05;;;2.10;;
23732;SDS011;12047;53.450;-2.286;2023-04-06T11:06:34;14.15;;;2.17;;
23732;SDS011;12047;53.450;-2.286;2023-04-06T11:11:38;15.15;;;2.55;;
23732;SDS011;12047;53.450;-2.286;2023-04-06T11:16:39;11.73;;;2.03;;
23732;SDS011;12047;53.450;-2.286;2023-04-06T11:21:40;13.77;;;2.63;;
23732;SDS011;12047;53.450;-2.286;2023-04-06T11:26:48;9.93;;;1.90;;
23732;SDS011;12047;53.450;-2.286;2023-04-06T11:31:58;10.85;;;2.72;;
23732;SDS011;12047;53.450;-2.286;2023-04-06T11:37:09;16.23;;;2.30;;
23732;SDS011;12047;53.450;-2.286;2023-04-06T11:42:10;10.63;;;2.05;;
23732;SDS011;12047;53.450;-2.286;2023-04-06T11:47:11;10.55;;;2.03;;
23732;SDS011;12047;53.450;-2.286;2023-04-06T11:57:32;7.70;;;1.67;;
23732;SDS011;12047;53.450;-2.286;2023-04-06T12:02:32;10.50;;;1.30;;
23732;SDS011;12047;53.450;-2.286;2023-04-06T12:07:33;11.70;;;1.83;;
23732;SDS011;12047;53.450;-2.286;2023-04-06T12:12:33;8.15;;;1.85;;
23732;SDS011;12047;53.450;-2.286;2023-04-06T12:17:34;11.48;;;2.00;;
23732;SDS011;12047;53.450;-2.286;2023-04-06T12:22:34;7.28;;;1.40;;
23732;SDS011;12047;53.450;-2.286;2023-04-06T12:27:36;9.73;;;1.35;;
23732;SDS011;12047;53.450;-2.286;2023-04-06T12:32:36;8.25;;;1.60;;
23732;SDS011;12047;53.450;-2.286;2023-04-06T12:37:37;11.85;;;2.50;;
23732;SDS011;12047;53.450;-2.286;2023-04-06T12:42:38;11.80;;;2.15;;
23732;SDS011;12047;53.450;-2.286;2023-04-06T12:47:40;12.68;;;1.55;;
23732;SDS011;12047;53.450;-2.286;2023-04-06T12:52:41;9.60;;;1.98;;
23732;SDS011;12047;53.450;-2.286;2023-04-06T12:57:42;5.70;;;1.70;;
23732;SDS011;12047;53.450;-2.286;2023-04-06T13:02:43;6.32;;;1.42;;
23732;SDS011;12047;53.450;-2.286;2023-04-06T13:07:46;5.20;;;1.50;;
23732;SDS011;12047;53.450;-2.286;2023-04-06T13:12:47;8.75;;;3.47;;
23732;SDS011;12047;53.450;-2.286;2023-04-06T13:17:47;7.88;;;1.45;;
23732;SDS011;12047;53.450;-2.286;2023-04-06T13:22:48;6.05;;;1.48;;
23732;SDS011;12047;53.450;-2.286;2023-04-06T13:27:48;9.45;;;2.13;;
23732;SDS011;12047;53.450;-2.286;2023-04-06T13:32:49;11.20;;;1.88;;
23732;SDS011;12047;53.450;-2.286;2023-04-06T13:37:50;15.05;;;1.73;;
23732;SDS011;12047;53.450;-2.286;2023-04-06T13:42:52;8.43;;;1.45;;
23732;SDS011;12047;53.450;-2.286;2023-04-06T13:47:52;7.75;;;1.20;;
23732;SDS011;12047;53.450;-2.286;2023-04-06T13:52:53;5.75;;;1.48;;
23732;SDS011;12047;53.450;-2.286;2023-04-06T13:57:53;9.30;;;1.40;;
23732;SDS011;12047;53.450;-2.286;2023-04-06T14:02:55;8.95;;;1.40;;
23732;SDS011;12047;53.450;-2.286;2023-04-06T14:07:55;8.45;;;1.33;;
23732;SDS011;12047;53.450;-2.286;2023-04-06T14:12:56;7.30;;;1.20;;
23732;SDS011;12047;53.450;-2.286;2023-04-06T14:17:58;9.10;;;1.13;;
23732;SDS011;12047;53.450;-2.286;2023-04-06T14:23:00;4.38;;;1.00;;
23732;SDS011;12047;53.450;-2.286;2023-04-06T14:28:01;6.70;;;1.10;;
23732;SDS011;12047;53.450;-2.286;2023-04-06T14:33:02;5.32;;;0.88;;
23732;SDS011;12047;53.450;-2.286;2023-04-06T14:38:02;5.18;;;1.10;;
23732;SDS011;12047;53.450;-2.286;2023-04-06T14:43:03;6.35;;;1.40;;
23732;SDS011;12047;53.450;-2.286;2023-04-06T14:48:03;3.28;;;1.05;;
23732;SDS011;12047;53.450;-2.286;2023-04-06T14:53:06;4.07;;;0.93;;
23732;SDS011;12047;53.450;-2.286;2023-04-06T14:58:06;8.55;;;1.45;;
23732;SDS011;12047;53.450;-2.286;2023-04-06T15:03:07;3.50;;;0.90;;
23732;SDS011;12047;53.450;-2.286;2023-04-06T15:08:07;4.70;;;1.02;;
23732;SDS011;12047;53.450;-2.286;2023-04-06T15:13:11;5.47;;;0.90;;
23732;SDS011;12047;53.450;-2.286;2023-04-06T15:18:12;3.50;;;0.70;;
23732;SDS011;12047;53.450;-2.286;2023-04-06T15:23:12;8.68;;;1.20;;
23732;SDS011;12047;53.450;-2.286;2023-04-06T15:28:13;5.97;;;1.02;;
23732;SDS011;12047;53.450;-2.286;2023-04-06T15:33:13;8.52;;;1.20;;
23732;SDS011;12047;53.450;-2.286;2023-04-06T15:38:14;3.15;;;0.80;;
23732;SDS011;12047;53.450;-2.286;2023-04-06T15:43:15;4.35;;;1.02;;
23732;SDS011;12047;53.450;-2.286;2023-04-06T15:48:16;7.10;;;1.30;;
23732;SDS011;12047;53.450;-2.286;2023-04-06T15:53:16;6.45;;;1.00;;
23732;SDS011;12047;53.450;-2.286;2023-04-06T15:58:19;6.63;;;1.20;;
23732;SDS011;12047;53.450;-2.286;2023-04-06T16:03:20;10.38;;;1.27;;
23732;SDS011;12047;53.450;-2.286;2023-04-06T16:08:20;8.02;;;1.25;;
23732;SDS011;12047;53.450;-2.286;2023-04-06T16:13:21;9.85;;;2.38;;
23732;SDS011;12047;53.450;-2.286;2023-04-06T16:18:21;8.05;;;1.17;;
23732;SDS011;12047;53.450;-2.286;2023-04-06T16:23:22;7.82;;;1.20;;
23732;SDS011;12047;53.450;-2.286;2023-04-06T16:28:23;6.45;;;1.38;;
23732;SDS011;12047;53.450;-2.286;2023-04-06T16:33:24;6.05;;;1.30;;
23732;SDS011;12047;53.450;-2.286;2023-04-06T16:38:25;7.05;;;1.02;;
23732;SDS011;12047;53.450;-2.286;2023-04-06T16:43:30;7.07;;;1.42;;
23732;SDS011;12047;53.450;-2.286;2023-04-06T16:48:32;6.75;;;1.23;;
23732;SDS011;12047;53.450;-2.286;2023-04-06T16:53:35;10.40;;;1.25;;
23732;SDS011;12047;53.450;-2.286;2023-04-06T16:58:37;10.10;;;1.45;;
23732;SDS011;12047;53.450;-2.286;2023-04-06T17:03:38;8.25;;;1.30;;
23732;SDS011;12047;53.450;-2.286;2023-04-06T17:08:38;10.18;;;1.85;;
23732;SDS011;12047;53.450;-2.286;2023-04-06T17:13:40;12.23;;;2.45;;
23732;SDS011;12047;53.450;-2.286;2023-04-06T17:18:41;11.82;;;1.80;;
23732;SDS011;12047;53.450;-2.286;2023-04-06T17:23:43;12.65;;;1.83;;
23732;SDS011;12047;53.450;-2.286;2023-04-06T17:28:43;4.65;;;1.30;;
23732;SDS011;12047;53.450;-2.286;2023-04-06T17:33:44;20.15;;;8.95;;
23732;SDS011;12047;53.450;-2.286;2023-04-06T17:38:46;15.98;;;4.57;;
23732;SDS011;12047;53.450;-2.286;2023-04-06T17:43:47;8.07;;;2.17;;
23732;SDS011;12047;53.450;-2.286;2023-04-06T17:48:47;18.90;;;7.32;;
23732;SDS011;12047;53.450;-2.286;2023-04-06T17:53:48;12.77;;;5.40;;
23732;SDS011;12047;53.450;-2.286;2023-04-06T17:58:48;8.18;;;1.60;;
23732;SDS011;12047;53.450;-2.286;2023-04-06T18:03:49;11.13;;;2.92;;
23732;SDS011;12047;53.450;-2.286;2023-04-06T18:08:50;32.10;;;16.70;;
23732;SDS011;12047;53.450;-2.286;2023-04-06T18:13:50;12.80;;;1.65;;
23732;SDS011;12047;53.450;-2.286;2023-04-06T18:18:50;18.27;;;7.68;;
23732;SDS011;12047;53.450;-2.286;2023-04-06T18:23:54;10.77;;;2.92;;
23732;SDS011;12047;53.450;-2.286;2023-04-06T18:28:57;9.55;;;2.83;;
23732;SDS011;12047;53.450;-2.286;2023-04-06T18:33:58;20.67;;;4.97;;
23732;SDS011;12047;53.450;-2.286;2023-04-06T18:38:58;13.38;;;2.47;;
23732;SDS011;12047;53.450;-2.286;2023-04-06T18:43:59;23.23;;;6.85;;
23732;SDS011;12047;53.450;-2.286;2023-04-06T18:48:59;22.77;;;8.70;;
23732;SDS011;12047;53.450;-2.286;2023-04-06T18:54:01;20.25;;;3.25;;
23732;SDS011;12047;53.450;-2.286;2023-04-06T18:59:02;12.20;;;2.17;;
23732;SDS011;12047;53.450;-2.286;2023-04-06T19:04:03;11.40;;;2.13;;
23732;SDS011;12047;53.450;-2.286;2023-04-06T19:09:04;11.75;;;2.83;;
23732;SDS011;12047;53.450;-2.286;2023-04-06T19:14:04;13.75;;;2.88;;
23732;SDS011;12047;53.450;-2.286;2023-04-06T19:19:05;13.27;;;2.35;;
23732;SDS011;12047;53.450;-2.286;2023-04-06T19:24:07;13.55;;;3.10;;
23732;SDS011;12047;53.450;-2.286;2023-04-06T19:29:11;16.60;;;3.28;;
23732;SDS011;12047;53.450;-2.286;2023-04-06T19:34:11;16.98;;;2.30;;
23732;SDS011;12047;53.450;-2.286;2023-04-06T19:39:19;11.23;;;2.83;;
23732;SDS011;12047;53.450;-2.286;2023-04-06T19:44:19;19.42;;;3.33;;
23732;SDS011;12047;53.450;-2.286;2023-04-06T19:49:20;17.50;;;3.90;;
23732;SDS011;12047;53.450;-2.286;2023-04-06T19:54:30;17.77;;;4.60;;
23732;SDS011;12047;53.450;-2.286;2023-04-06T20:04:35;15.57;;;3.40;;
23732;SDS011;12047;53.450;-2.286;2023-04-06T20:09:35;30.92;;;9.38;;
23732;SDS011;12047;53.450;-2.286;2023-04-06T20:14:36;15.80;;;3.80;;
23732;SDS011;12047;53.450;-2.286;2023-04-06T20:24:57;20.30;;;4.75;;
23732;SDS011;12047;53.450;-2.286;2023-04-06T20:35:34;18.13;;;4.20;;
23732;SDS011;12047;53.450;-2.286;2023-04-06T20:40:37;20.05;;;3.58;;
23732;SDS011;12047;53.450;-2.286;2023-04-06T20:45:51;16.02;;;3.17;;
23732;SDS011;12047;53.450;-2.286;2023-04-06T20:50:55;16.77;;;4.88;;
23732;SDS011;12047;53.450;-2.286;2023-04-06T20:55:56;20.17;;;3.13;;
23732;SDS011;12047;53.450;-2.286;2023-04-06T21:12:34;16.13;;;3.40;;
23732;SDS011;12047;53.450;-2.286;2023-04-06T21:17:37;12.15;;;2.63;;
23732;SDS011;12047;53.450;-2.286;2023-04-06T21:22:37;13.13;;;2.72;;
23732;SDS011;12047;53.450;-2.286;2023-04-06T21:27:38;13.85;;;2.70;;
23732;SDS011;12047;53.450;-2.286;2023-04-06T21:32:39;17.08;;;3.28;;
23732;SDS011;12047;53.450;-2.286;2023-04-06T21:37:43;19.67;;;2.72;;
23732;SDS011;12047;53.450;-2.286;2023-04-06T21:42:43;15.52;;;3.35;;
23732;SDS011;12047;53.450;-2.286;2023-04-06T21:47:44;13.65;;;2.90;;
23732;SDS011;12047;53.450;-2.286;2023-04-06T21:53:05;21.75;;;4.47;;
23732;SDS011;12047;53.450;-2.286;2023-04-06T21:58:05;12.35;;;3.78;;
23732;SDS011;12047;53.450;-2.286;2023-04-06T22:03:09;14.52;;;3.13;;
23732;SDS011;12047;53.450;-2.286;2023-04-06T22:08:12;14.80;;;2.28;;
23732;SDS011;12047;53.450;-2.286;2023-04-06T22:13:13;15.77;;;3.53;;
23732;SDS011;12047;53.450;-2.286;2023-04-06T22:18:17;23.52;;;4.82;;
23732;SDS011;12047;53.450;-2.286;2023-04-06T22:23:18;14.60;;;2.50;;
23732;SDS011;12047;53.450;-2.286;2023-04-06T22:28:20;9.13;;;2.33;;
23732;SDS011;12047;53.450;-2.286;2023-04-06T22:33:24;18.20;;;2.30;;
23732;SDS011;12047;53.450;-2.286;2023-04-06T22:38:24;12.13;;;2.53;;
23732;SDS011;12047;53.450;-2.286;2023-04-06T22:43:25;16.38;;;2.50;;
23732;SDS011;12047;53.450;-2.286;2023-04-06T22:48:26;10.55;;;2.30;;
23732;SDS011;12047;53.450;-2.286;2023-04-06T22:53:27;14.98;;;3.88;;
23732;SDS011;12047;53.450;-2.286;2023-04-06T22:58:27;16.58;;;2.80;;
23732;SDS011;12047;53.450;-2.286;2023-04-06T23:03:28;17.77;;;2.95;;
23732;SDS011;12047;53.450;-2.286;2023-04-06T23:08:29;15.10;;;3.30;;
23732;SDS011;12047;53.450;-2.286;2023-04-06T23:13:33;17.42;;;3.13;;
23732;SDS011;12047;53.450;-2.286;2023-04-06T23:18:33;11.60;;;3.28;;
23732;SDS011;12047;53.450;-2.286;2023-04-06T23:23:34;15.32;;;2.80;;
23732;SDS011;12047;53.450;-2.286;2023-04-06T23:28:34;15.70;;;3.75;;
23732;SDS011;12047;53.450;-2.286;2023-04-06T23:33:35;12.52;;;3.70;;
23732;SDS011;12047;53.450;-2.286;2023-04-06T23:38:36;16.80;;;3.47;;
23732;SDS011;12047;53.450;-2.286;2023-04-06T23:43:36;11.35;;;3.40;;
23732;SDS011;12047;53.450;-2.286;2023-04-06T23:48:37;15.85;;;3.60;;
23732;SDS011;12047;53.450;-2.286;2023-04-06T23:53:40;16.65;;;3.67;;
23732;SDS011;12047;53.450;-2.286;2023-04-06T23:58:49;16.27;;;3.08;;
